Time;durP1;ratioP1;P1;durP2;ratioP2;P2;SDS_P1;SDS_P2;PMS_P1;PMS_P2;Temp;Humidity;BMP_temperature;BMP_pressure;BME280_temperature;BME280_humidity;BME280_pressure;Samples;Min_cycle;Max_cycle;Signal;HPM_P1;HPM_P2
2023/12/19 12:16:53;;;;;;;16.30;11.60;;;;;;;6.52;100.00;101665.13;5281760;27;20366;-69
2023/12/19 12:19:26;;;;;;;13.70;11.20;;;;;;;6.47;100.00;101656.59;5268780;28;20559;-69
2023/12/19 12:21:57;;;;;;;11.90;10.50;;;;;;;6.52;100.00;101646.91;5270899;28;20494;-70
2023/12/19 12:24:29;;;;;;;12.37;10.73;;;;;;;6.48;100.00;101640.06;5269066;28;20028;-68
2023/12/19 12:27:09;;;;;;;12.83;11.33;;;;;;;6.63;100.00;101640.50;5267131;28;20439;-69
2023/12/19 12:29:40;;;;;;;13.50;11.17;;;;;;;6.69;100.00;101631.66;5270315;28;20037;-70
2023/12/19 12:32:12;;;;;;;13.47;9.83;;;;;;;6.65;100.00;101625.69;5262083;28;20084;-69
2023/12/19 12:34:47;;;;;;;12.97;10.27;;;;;;;6.67;100.00;101621.28;5260136;28;20419;-68
2023/12/19 12:37:18;;;;;;;12.02;10.13;;;;;;;6.67;100.00;101599.63;5270643;28;20131;-70
2023/12/19 12:39:50;;;;;;;12.70;11.00;;;;;;;6.75;100.00;101608.03;5269495;28;20013;-70
2023/12/19 12:42:23;;;;;;;12.47;10.13;;;;;;;6.80;100.00;101597.47;5271487;28;20031;-71
2023/12/19 12:45:03;;;;;;;14.43;10.33;;;;;;;6.97;100.00;101595.19;5269289;28;20064;-70
2023/12/19 12:47:37;;;;;;;11.83;9.70;;;;;;;6.85;100.00;101591.22;5262040;28;20021;-69
2023/12/19 12:50:08;;;;;;;14.57;10.20;;;;;;;6.84;100.00;101596.47;5268491;28;20083;-73
2023/12/19 12:52:40;;;;;;;10.40;8.97;;;;;;;6.95;100.00;101581.34;5262537;28;20311;-70
2023/12/19 12:55:12;;;;;;;10.67;9.20;;;;;;;6.83;100.00;101579.13;5269197;28;20037;-71
2023/12/19 12:57:44;;;;;;;11.10;8.83;;;;;;;6.93;100.00;101580.53;5259917;28;20488;-72
2023/12/19 13:00:15;;;;;;;12.00;9.30;;;;;;;6.84;100.00;101579.09;5270056;28;20471;-71
2023/12/19 13:02:47;;;;;;;13.60;8.77;;;;;;;6.98;100.00;101575.22;5263657;28;20033;-71
2023/12/19 13:05:18;;;;;;;13.67;8.77;;;;;;;6.90;100.00;101570.22;5270203;28;20375;-71
2023/12/19 13:07:50;;;;;;;11.87;8.80;;;;;;;6.97;100.00;101566.53;5286044;28;20025;-70
2023/12/19 13:10:22;;;;;;;9.63;8.37;;;;;;;7.17;100.00;101562.41;5267649;28;20056;-72
2023/12/19 13:12:53;;;;;;;11.30;8.10;;;;;;;7.10;100.00;101560.91;5263766;28;20072;-71
2023/12/19 13:15:24;;;;;;;12.07;8.43;;;;;;;7.10;100.00;101556.53;5266541;28;20084;-70
2023/12/19 13:17:56;;;;;;;11.60;8.83;;;;;;;7.02;100.00;101553.34;5266809;28;20665;-70
2023/12/19 13:20:27;;;;;;;10.43;7.90;;;;;;;7.10;100.00;101545.28;5275000;28;20029;-71
2023/12/19 13:23:00;;;;;;;10.80;8.27;;;;;;;7.14;100.00;101557.28;5252496;28;20104;-71
2023/12/19 13:25:31;;;;;;;9.73;7.90;;;;;;;7.01;100.00;101557.72;5265803;28;20078;-71
2023/12/19 13:28:04;;;;;;;9.77;8.60;;;;;;;7.04;100.00;101548.09;5241605;28;20026;-71
2023/12/19 13:30:36;;;;;;;9.07;7.53;;;;;;;7.08;100.00;101553.16;5257368;28;20059;-69
2023/12/19 13:33:08;;;;;;;9.40;7.63;;;;;;;7.23;100.00;101550.91;5245245;28;20087;-71
2023/12/19 13:35:40;;;;;;;9.23;7.93;;;;;;;7.31;100.00;101542.84;5252287;28;20078;-70
2023/12/19 13:38:13;;;;;;;9.50;7.77;;;;;;;7.17;100.00;101540.72;5240050;28;20029;-71
2023/12/19 13:40:44;;;;;;;9.23;7.83;;;;;;;7.17;100.00;101541.56;5244508;28;20448;-71
2023/12/19 13:43:15;;;;;;;10.27;8.33;;;;;;;7.16;100.00;101519.03;5253775;28;20103;-71
2023/12/19 13:45:47;;;;;;;10.07;7.57;;;;;;;7.11;100.00;101520.94;5256905;28;20040;-71
2023/12/19 13:48:18;;;;;;;9.17;7.50;;;;;;;7.16;100.00;101534.66;5257165;28;20036;-71
2023/12/19 13:50:49;;;;;;;10.57;7.70;;;;;;;7.25;100.00;101528.28;5255072;28;20025;-71
2023/12/19 13:53:21;;;;;;;8.67;7.63;;;;;;;7.20;100.00;101520.63;5254095;28;20037;-71
2023/12/19 13:55:52;;;;;;;9.00;7.43;;;;;;;7.32;100.00;101519.34;5252633;28;20043;-71
2023/12/19 13:58:24;;;;;;;9.33;7.67;;;;;;;7.29;100.00;101523.81;5259409;28;20028;-71
2023/12/19 14:00:55;;;;;;;9.83;7.00;;;;;;;7.29;100.00;101526.41;5256507;28;20021;-71
2023/12/19 14:03:27;;;;;;;7.53;6.63;;;;;;;7.28;100.00;101530.75;5242005;28;20025;-72
2023/12/19 14:05:58;;;;;;;8.03;7.03;;;;;;;7.30;100.00;101515.06;5255300;28;20585;-71
2023/12/19 14:08:32;;;;;;;7.07;6.13;;;;;;;7.37;100.00;101511.34;5254551;28;20521;-72
2023/12/19 14:11:03;;;;;;;11.13;7.50;;;;;;;7.30;100.00;101502.03;5284884;28;20025;-72
2023/12/19 14:13:35;;;;;;;9.57;7.17;;;;;;;7.31;100.00;101501.16;5257351;28;20033;-73
2023/12/19 14:16:06;;;;;;;9.83;7.27;;;;;;;7.24;100.00;101503.13;5241155;28;20045;-74
2023/12/19 14:18:39;;;;;;;8.33;7.40;;;;;;;7.24;100.00;101498.75;5245819;28;20318;-71
2023/12/19 14:21:10;;;;;;;9.23;7.83;;;;;;;7.21;100.00;101483.22;5240748;28;20621;-72
2023/12/19 14:23:41;;;;;;;8.57;7.57;;;;;;;7.09;100.00;101481.91;5252490;28;20051;-72
2023/12/19 14:26:15;;;;;;;12.03;7.60;;;;;;;7.18;100.00;101477.28;5249423;28;20552;-72
2023/12/19 14:28:46;;;;;;;13.73;9.03;;;;;;;7.42;100.00;101483.38;5244108;28;20385;-72
2023/12/19 14:31:18;;;;;;;9.13;7.80;;;;;;;7.28;100.00;101480.44;5245142;28;20029;-72
2023/12/19 14:33:49;;;;;;;12.23;9.10;;;;;;;7.20;100.00;101484.16;5247237;28;20116;-71
2023/12/19 14:36:22;;;;;;;10.20;8.33;;;;;;;7.20;100.00;101476.34;5250942;28;20075;-72
2023/12/19 14:38:56;;;;;;;9.87;8.67;;;;;;;7.20;100.00;101467.66;5246894;28;20020;-73
2023/12/19 14:41:27;;;;;;;9.35;7.70;;;;;;;7.23;100.00;101472.75;5241314;28;20018;-72
2023/12/19 14:43:59;;;;;;;9.70;8.67;;;;;;;7.15;100.00;101470.44;5250138;28;20032;-71
2023/12/19 14:46:30;;;;;;;11.97;9.13;;;;;;;7.22;100.00;101466.72;5249786;28;20103;-72
2023/12/19 14:49:02;;;;;;;10.77;8.60;;;;;;;7.26;100.00;101472.66;5250901;28;20179;-72
2023/12/19 14:51:33;;;;;;;10.03;8.20;;;;;;;7.28;100.00;101456.97;5245106;28;20682;-72
2023/12/19 14:54:04;;;;;;;10.03;8.23;;;;;;;7.30;100.00;101468.16;5249964;28;20041;-73
2023/12/19 14:56:36;;;;;;;13.77;8.90;;;;;;;7.33;100.00;101470.69;5254157;28;20479;-72
2023/12/19 14:59:09;;;;;;;11.33;7.90;;;;;;;7.34;100.00;101461.97;5254619;28;20032;-72
2023/12/19 15:01:40;;;;;;;9.93;7.93;;;;;;;7.21;100.00;101435.50;5248298;28;20029;-74
2023/12/19 15:04:13;;;;;;;9.40;7.27;;;;;;;7.34;100.00;101446.31;5249975;28;20025;-73
2023/12/19 15:06:44;;;;;;;10.37;7.83;;;;;;;7.18;100.00;101444.28;5249603;28;20029;-73
2023/12/19 15:09:18;;;;;;;9.93;7.73;;;;;;;7.24;100.00;101451.84;5252228;28;20029;-72
2023/12/19 15:11:50;;;;;;;7.55;6.72;;;;;;;7.13;100.00;101440.97;5253907;28;20025;-72
2023/12/19 15:14:22;;;;;;;10.60;8.30;;;;;;;7.23;100.00;101442.34;5246484;28;20051;-70
2023/12/19 15:16:54;;;;;;;8.57;7.70;;;;;;;7.19;100.00;101448.56;5259118;28;20418;-72
2023/12/19 15:19:25;;;;;;;9.90;8.90;;;;;;;7.25;100.00;101435.34;5253839;28;20025;-70
2023/12/19 15:21:57;;;;;;;8.67;7.77;;;;;;;7.40;100.00;101438.25;5254094;28;20091;-71
2023/12/19 15:24:28;;;;;;;8.67;7.53;;;;;;;7.31;100.00;101433.41;5254253;28;20116;-72
2023/12/19 15:26:59;;;;;;;10.87;8.60;;;;;;;7.33;100.00;101426.41;5251231;28;20021;-79
2023/12/19 15:29:31;;;;;;;10.77;8.77;;;;;;;7.24;100.00;101425.78;5253138;28;20108;-74
2023/12/19 15:32:02;;;;;;;10.07;9.10;;;;;;;7.26;100.00;101430.97;5255661;28;20053;-72
2023/12/19 15:34:34;;;;;;;10.63;9.57;;;;;;;7.29;100.00;101427.41;5254061;28;20108;-71
2023/12/19 15:37:06;;;;;;;10.80;9.70;;;;;;;7.16;100.00;101416.59;5254370;28;20828;-71
2023/12/19 15:39:37;;;;;;;11.80;9.37;;;;;;;7.19;100.00;101424.28;5247664;28;20039;-73
2023/12/19 15:42:08;;;;;;;12.13;10.40;;;;;;;7.18;100.00;101426.03;5254280;28;20051;-73
2023/12/19 15:44:43;;;;;;;11.67;10.47;;;;;;;7.28;100.00;101426.53;5251973;28;20024;-71
2023/12/19 15:47:15;;;;;;;11.97;10.13;;;;;;;7.26;100.00;101420.56;5252939;28;20025;-72
2023/12/19 15:49:47;;;;;;;12.63;10.67;;;;;;;7.28;100.00;101420.50;5254137;28;20029;-74
2023/12/19 15:52:18;;;;;;;13.67;10.47;;;;;;;7.23;100.00;101421.50;5252762;28;20387;-71
2023/12/19 15:54:49;;;;;;;12.20;9.80;;;;;;;7.37;100.00;101420.13;5253694;28;20033;-72
2023/12/19 15:57:20;;;;;;;12.63;9.83;;;;;;;7.40;100.00;101422.63;5252301;28;20108;-74
2023/12/19 15:59:52;;;;;;;10.80;9.70;;;;;;;7.38;100.00;101433.13;5254070;28;20062;-71
2023/12/19 16:02:23;;;;;;;12.13;10.87;;;;;;;7.38;100.00;101429.69;5252469;28;20087;-71
2023/12/19 16:04:55;;;;;;;11.73;10.60;;;;;;;7.39;100.00;101431.38;5253725;28;20072;-72
2023/12/19 16:07:26;;;;;;;12.37;11.10;;;;;;;7.40;100.00;101427.00;5250281;28;20114;-73
2023/12/19 16:09:57;;;;;;;11.90;10.70;;;;;;;7.36;100.00;101421.06;5253911;28;20053;-73
2023/12/19 16:12:35;;;;;;;12.87;11.40;;;;;;;7.36;100.00;101423.66;5253620;28;20029;-73
2023/12/19 16:15:07;;;;;;;13.03;11.73;;;;;;;7.37;100.00;101422.75;5262457;28;20198;-74
2023/12/19 16:17:38;;;;;;;12.43;11.23;;;;;;;7.31;100.00;101430.81;5249338;28;20033;-71
2023/12/19 16:20:10;;;;;;;13.73;11.83;;;;;;;7.28;100.00;101423.09;5261981;28;20035;-75
2023/12/19 16:22:41;;;;;;;11.37;10.17;;;;;;;7.29;100.00;101425.66;5249214;28;20030;-75
2023/12/19 16:25:14;;;;;;;13.37;11.93;;;;;;;7.31;100.00;101423.00;5252972;28;20052;-78
2023/12/19 16:27:48;;;;;;;13.60;12.20;;;;;;;7.32;100.00;101419.47;5247446;28;20036;-77
2023/12/19 16:30:19;;;;;;;11.97;10.80;;;;;;;7.34;100.00;101422.88;5249766;28;20108;-73
2023/12/19 16:32:51;;;;;;;14.27;11.47;;;;;;;7.32;100.00;101424.66;5247708;28;20146;-74
2023/12/19 16:35:22;;;;;;;13.40;11.97;;;;;;;7.36;100.00;101418.47;5251308;28;20071;-75
2023/12/19 16:37:53;;;;;;;13.40;12.00;;;;;;;7.36;100.00;101421.06;5251808;28;20021;-73
2023/12/19 16:40:24;;;;;;;12.53;11.17;;;;;;;7.37;100.00;101420.13;5246550;28;20061;-75
2023/12/19 16:42:57;;;;;;;12.50;11.07;;;;;;;7.37;100.00;101430.56;5255341;28;20055;-75
2023/12/19 16:45:28;;;;;;;12.10;10.80;;;;;;;7.38;100.00;101429.69;5252366;28;20453;-73
2023/12/19 16:47:59;;;;;;;14.10;10.73;;;;;;;7.46;100.00;101421.56;5253149;28;20104;-76
2023/12/19 16:50:30;;;;;;;12.57;11.37;;;;;;;7.37;100.00;101409.72;5253251;28;20040;-75
2023/12/19 16:53:02;;;;;;;13.70;12.40;;;;;;;7.35;100.00;101414.13;5252265;28;20052;-76
2023/12/19 16:55:33;;;;;;;13.23;11.83;;;;;;;7.39;100.00;101405.31;5251816;28;20086;-76
2023/12/19 16:58:05;;;;;;;12.47;11.27;;;;;;;7.35;100.00;101407.16;5250790;28;20025;-76
2023/12/19 17:00:36;;;;;;;13.63;12.23;;;;;;;7.40;100.00;101409.59;5251948;28;20080;-75
2023/12/19 17:03:08;;;;;;;13.53;12.00;;;;;;;7.41;100.00;101419.13;5252296;28;20031;-76
2023/12/19 17:05:39;;;;;;;13.40;12.10;;;;;;;7.39;100.00;101418.34;5252152;28;20547;-75
2023/12/19 17:08:10;;;;;;;14.17;12.87;;;;;;;7.41;100.00;101419.13;5254541;28;20384;-74
2023/12/19 17:10:41;;;;;;;14.57;13.17;;;;;;;7.41;100.00;101413.06;5248705;28;20079;-75
2023/12/19 17:13:13;;;;;;;14.03;12.70;;;;;;;7.44;100.00;101419.00;5255575;28;20411;-74
2023/12/19 17:15:45;;;;;;;15.80;14.30;;;;;;;7.49;100.00;101417.09;5253566;28;20128;-74
2023/12/19 17:18:16;;;;;;;15.03;13.63;;;;;;;7.53;100.00;101424.78;5249367;28;20027;-74
2023/12/19 17:20:47;;;;;;;15.50;13.97;;;;;;;7.55;100.00;101420.38;5252665;28;20033;-72
2023/12/19 17:23:18;;;;;;;16.03;14.47;;;;;;;7.58;100.00;101415.88;5252362;28;20056;-71
2023/12/19 17:25:50;;;;;;;16.87;15.30;;;;;;;7.55;100.00;101415.16;5255092;28;20094;-73
2023/12/19 17:28:21;;;;;;;17.17;15.57;;;;;;;7.57;100.00;101426.38;5248654;28;20726;-73
2023/12/19 17:30:53;;;;;;;17.60;16.10;;;;;;;7.55;100.00;101430.78;5248879;28;20029;-72
2023/12/19 17:33:24;;;;;;;18.13;16.50;;;;;;;7.64;100.00;101420.03;5250359;28;20028;-76
2023/12/19 17:35:55;;;;;;;17.80;16.23;;;;;;;7.68;100.00;101424.19;5242499;28;20037;-74
2023/12/19 17:38:27;;;;;;;18.50;16.77;;;;;;;7.58;100.00;101422.84;5249597;28;20021;-71
2023/12/19 17:40:58;;;;;;;20.07;18.27;;;;;;;7.59;100.00;101438.44;5251090;28;20515;-75
2023/12/19 17:43:30;;;;;;;20.97;19.17;;;;;;;7.67;100.00;101445.97;5247505;28;20036;-73
2023/12/19 17:46:01;;;;;;;22.77;20.67;;;;;;;7.60;100.00;101434.94;5256417;28;20387;-75
2023/12/19 17:48:32;;;;;;;22.53;20.27;;;;;;;7.70;100.00;101451.06;5253973;28;20029;-72
2023/12/19 17:51:06;;;;;;;23.20;21.03;;;;;;;7.73;100.00;101455.34;5244764;28;20175;-71
2023/12/19 17:53:37;;;;;;;24.13;21.83;;;;;;;7.54;100.00;101440.34;5250347;28;20035;-76
2023/12/19 17:56:08;;;;;;;23.67;21.30;;;;;;;7.67;100.00;101445.97;5245040;28;20041;-74
2023/12/19 17:58:39;;;;;;;24.23;21.97;;;;;;;7.71;100.00;101451.94;5252151;28;20118;-73
2023/12/19 18:01:11;;;;;;;25.90;23.33;;;;;;;7.62;100.00;101456.59;5249744;28;20127;-75
2023/12/19 18:03:42;;;;;;;23.20;21.00;;;;;;;7.72;100.00;101451.00;5252953;28;20029;-72
2023/12/19 18:06:18;;;;;;;25.17;22.93;;;;;;;7.70;100.00;101461.50;5251189;28;20029;-76
2023/12/19 18:08:49;;;;;;;25.93;23.63;;;;;;;7.71;100.00;101465.81;5248802;28;20040;-72
2023/12/19 18:11:20;;;;;;;26.57;24.13;;;;;;;7.74;100.00;101467.44;5243446;28;20029;-72
2023/12/19 18:13:52;;;;;;;25.77;23.37;;;;;;;7.66;100.00;101457.31;5240342;28;20029;-80
2023/12/19 18:16:24;;;;;;;25.73;23.33;;;;;;;7.63;100.00;101454.81;5243128;28;20045;-75
2023/12/19 18:18:55;;;;;;;27.43;24.80;;;;;;;7.67;100.00;101461.63;5237973;28;20040;-77
2023/12/19 18:21:26;;;;;;;25.97;23.53;;;;;;;7.70;100.00;101455.44;5235149;28;20121;-75
2023/12/19 18:23:57;;;;;;;26.43;24.03;;;;;;;7.77;100.00;101459.50;5238010;28;20646;-76
2023/12/19 18:26:29;;;;;;;27.53;24.83;;;;;;;7.79;100.00;101459.44;5249484;28;20055;-71
2023/12/19 18:29:00;;;;;;;26.23;23.60;;;;;;;7.77;100.00;101461.28;5254460;28;20040;-72
2023/12/19 18:31:32;;;;;;;26.43;23.87;;;;;;;7.72;100.00;101464.91;5249897;28;20526;-70
2023/12/19 18:34:03;;;;;;;25.00;22.70;;;;;;;7.68;100.00;101463.31;5253042;28;20025;-71
2023/12/19 18:36:35;;;;;;;26.90;24.30;;;;;;;7.70;100.00;101474.53;5246706;28;20500;-71
2023/12/19 18:39:06;;;;;;;26.00;23.57;;;;;;;7.70;100.00;101461.50;5249823;28;20083;-72
2023/12/19 18:41:37;;;;;;;25.67;23.17;;;;;;;7.77;100.00;101471.72;5248770;28;20045;-70
2023/12/19 18:44:09;;;;;;;27.93;24.93;;;;;;;7.75;100.00;101469.13;5259136;28;20492;-73
2023/12/19 18:46:41;;;;;;;28.50;25.67;;;;;;;7.75;100.00;101472.59;5268156;28;20013;-73
2023/12/19 18:49:12;;;;;;;27.27;24.77;;;;;;;7.74;100.00;101472.66;5252314;28;20021;-74
2023/12/19 18:51:43;;;;;;;26.77;24.20;;;;;;;7.78;100.00;101474.25;5247532;28;20847;-70
2023/12/19 18:54:15;;;;;;;26.97;24.17;;;;;;;7.75;100.00;101475.22;5252910;28;20437;-76
2023/12/19 18:56:46;;;;;;;25.17;22.77;;;;;;;7.81;100.00;101484.56;5254317;28;20114;-80
2023/12/19 18:59:21;;;;;;;23.77;21.57;;;;;;;7.84;100.00;101486.19;5254019;28;20021;-77
2023/12/19 19:01:53;;;;;;;24.60;22.20;;;;;;;7.85;100.00;101493.13;5254547;28;20021;-80
2023/12/19 19:04:24;;;;;;;24.60;22.07;;;;;;;7.82;100.00;101490.66;5251709;28;20589;-71
2023/12/19 19:06:56;;;;;;;24.77;22.07;;;;;;;7.82;100.00;101490.66;5253553;28;20043;-73
2023/12/19 19:09:27;;;;;;;24.13;21.73;;;;;;;7.78;100.00;101483.84;5251764;28;20059;-71
2023/12/19 19:11:58;;;;;;;23.23;20.93;;;;;;;7.83;100.00;101493.19;5255939;28;20028;-77
2023/12/19 19:14:30;;;;;;;22.93;20.63;;;;;;;7.81;100.00;101492.38;5251745;28;20029;-71
2023/12/19 19:17:01;;;;;;;24.37;21.77;;;;;;;7.83;100.00;101492.34;5254335;28;20029;-74
2023/12/19 19:19:32;;;;;;;23.20;20.70;;;;;;;7.86;100.00;101489.59;5254905;28;20368;-72
2023/12/19 19:22:04;;;;;;;24.47;22.07;;;;;;;7.88;100.00;101485.19;5259029;28;20095;-71
2023/12/19 19:24:35;;;;;;;26.80;23.87;;;;;;;7.95;100.00;101491.00;5251143;28;20029;-73
2023/12/19 19:27:08;;;;;;;25.53;22.80;;;;;;;7.85;100.00;101485.31;5252680;28;20039;-71
2023/12/19 19:29:39;;;;;;;26.00;23.30;;;;;;;7.83;100.00;101494.94;5252793;28;20025;-71
2023/12/19 19:32:14;;;;;;;27.07;24.17;;;;;;;7.89;100.00;101481.66;5269486;28;20032;-73
2023/12/19 19:34:46;;;;;;;26.75;23.95;;;;;;;7.80;100.00;101482.03;5262955;28;20036;-71
2023/12/19 19:37:17;;;;;;;28.50;25.60;;;;;;;7.79;100.00;101493.34;5262011;28;20029;-75
2023/12/19 19:39:48;;;;;;;32.93;27.33;;;;;;;7.81;100.00;101494.13;5258893;28;20028;-71
2023/12/19 19:42:21;;;;;;;33.13;27.70;;;;;;;7.86;100.00;101497.44;5260436;28;20023;-74
2023/12/19 19:44:52;;;;;;;31.07;27.00;;;;;;;7.85;100.00;101498.34;5256640;28;20056;-71
2023/12/19 19:47:23;;;;;;;31.70;27.37;;;;;;;7.88;100.00;101495.63;5255565;28;20094;-73
2023/12/19 19:49:56;;;;;;;31.23;26.33;;;;;;;7.83;100.00;101493.19;5252208;28;20740;-76
2023/12/19 19:52:28;;;;;;;29.60;24.13;;;;;;;7.86;100.00;101490.47;5244978;28;20090;-72
2023/12/19 19:55:00;;;;;;;32.90;26.67;;;;;;;7.90;100.00;101490.34;5252078;28;20083;-77
2023/12/19 19:57:32;;;;;;;36.40;26.60;;;;;;;7.81;100.00;101473.28;5246546;28;20022;-83
2023/12/19 20:00:06;;;;;;;30.90;25.37;;;;;;;7.86;100.00;101479.16;5239855;28;20017;-73
2023/12/19 20:02:37;;;;;;;33.38;25.95;;;;;;;7.88;100.00;101487.78;5250895;28;20025;-73
2023/12/19 20:05:09;;;;;;;34.60;27.07;;;;;;;7.77;100.00;101482.97;5240158;28;20738;-73
2023/12/19 20:07:41;;;;;;;31.60;24.93;;;;;;;7.90;100.00;101503.38;5251880;28;20033;-71
2023/12/19 20:10:13;;;;;;;31.37;23.53;;;;;;;7.85;100.00;101490.53;5227957;28;20045;-73
2023/12/19 20:12:44;;;;;;;30.63;25.37;;;;;;;7.91;100.00;101505.06;5235058;28;20028;-84
2023/12/19 20:15:15;;;;;;;32.87;25.40;;;;;;;7.90;100.00;101505.97;5244870;28;20053;-80
2023/12/19 20:17:46;;;;;;;33.27;25.77;;;;;;;7.92;100.00;101505.03;5246387;28;20064;-73
2023/12/19 20:20:18;;;;;;;29.77;24.13;;;;;;;7.74;100.00;101473.53;5244693;28;20487;-80
2023/12/19 20:22:50;;;;;;;32.07;25.33;;;;;;;7.90;100.00;101499.03;5246445;28;20882;-73
2023/12/19 20:25:21;;;;;;;31.70;25.67;;;;;;;7.91;100.00;101505.06;5247181;28;20037;-78
2023/12/19 20:27:52;;;;;;;32.13;24.73;;;;;;;7.86;100.00;101503.50;5245690;28;20064;-77
2023/12/19 20:30:24;;;;;;;33.27;26.37;;;;;;;7.90;100.00;101503.38;5247789;28;20040;-75
2023/12/19 20:32:57;;;;;;;33.90;27.33;;;;;;;7.83;100.00;101502.75;5246118;28;20094;-74
2023/12/19 20:35:28;;;;;;;34.87;27.50;;;;;;;7.85;100.00;101496.56;5243140;28;20128;-75
2023/12/19 20:37:59;;;;;;;37.30;29.47;;;;;;;7.86;100.00;101502.63;5249068;28;20104;-72
2023/12/19 20:40:31;;;;;;;33.70;26.53;;;;;;;7.84;100.00;101494.88;5250521;28;20091;-76
2023/12/19 20:43:03;;;;;;;32.33;26.43;;;;;;;7.94;100.00;101497.97;5248198;28;20120;-71
2023/12/19 20:45:34;;;;;;;31.97;26.50;;;;;;;7.89;100.00;101491.25;5250321;28;20059;-71
2023/12/19 20:48:06;;;;;;;32.97;27.57;;;;;;;7.99;100.00;101509.09;5250642;28;20494;-71
2023/12/19 20:50:37;;;;;;;32.43;26.53;;;;;;;7.95;100.00;101502.31;5250250;28;20059;-69
2023/12/19 20:53:08;;;;;;;34.30;27.37;;;;;;;7.84;100.00;101483.59;5246262;28;20063;-71
2023/12/19 20:55:41;;;;;;;33.43;28.00;;;;;;;7.93;100.00;101498.91;5250644;28;20053;-71
2023/12/19 20:58:12;;;;;;;29.43;25.37;;;;;;;7.94;100.00;101505.81;5250650;28;20681;-71
2023/12/19 21:00:44;;;;;;;30.70;26.57;;;;;;;7.90;100.00;101508.59;5248661;28;20116;-73
2023/12/19 21:03:15;;;;;;;30.23;25.13;;;;;;;7.94;100.00;101513.63;5232906;28;20032;-72
2023/12/19 21:05:47;;;;;;;29.70;26.00;;;;;;;7.95;100.00;101504.91;5250511;28;20025;-73
2023/12/19 21:08:18;;;;;;;29.57;24.20;;;;;;;7.97;100.00;101505.72;5251298;28;20040;-73
2023/12/19 21:10:50;;;;;;;29.17;24.33;;;;;;;7.97;100.00;101505.72;5253871;28;20111;-72
2023/12/19 21:13:22;;;;;;;24.67;22.07;;;;;;;7.87;100.00;101499.97;5252255;28;20190;-73
2023/12/19 21:16:00;;;;;;;23.77;20.77;;;;;;;7.85;100.00;101498.34;5252968;28;20131;-74
2023/12/19 21:18:31;;;;;;;22.77;20.27;;;;;;;7.79;100.00;101485.53;5251643;28;20094;-73
2023/12/19 21:21:06;;;;;;;24.20;21.60;;;;;;;7.87;100.00;101507.78;5251568;28;20026;-73
2023/12/19 21:23:37;;;;;;;;;;;;;;;8.06;100.00;101511.47;5254519;28;20065;-73
2023/12/19 21:26:08;;;;;;;18.97;16.93;;;;;;;7.90;100.00;101516.41;5254258;28;20011;-73
2023/12/19 21:28:40;;;;;;;17.53;14.90;;;;;;;7.82;100.00;101511.50;5251172;28;20025;-73
2023/12/19 21:31:11;;;;;;;17.13;14.77;;;;;;;7.77;100.00;101513.44;5247179;28;20414;-72
2023/12/19 21:33:43;;;;;;;13.77;11.03;;;;;;;7.77;100.00;101511.66;5250830;28;20102;-73
2023/12/19 21:36:15;;;;;;;11.53;9.10;;;;;;;7.77;100.00;101501.22;5247059;28;20024;-73
2023/12/19 21:38:46;;;;;;;12.53;9.53;;;;;;;7.59;100.00;101506.22;5253096;28;20025;-73
2023/12/19 21:41:18;;;;;;;10.53;9.40;;;;;;;7.65;100.00;101504.28;5252926;28;20021;-74
2023/12/19 21:43:49;;;;;;;15.03;9.23;;;;;;;7.89;100.00;101504.31;5254749;28;20052;-75
2023/12/19 21:46:20;;;;;;;12.57;10.70;;;;;;;7.86;100.00;101503.50;5255001;28;20036;-74
2023/12/19 21:48:52;;;;;;;13.13;10.73;;;;;;;7.81;100.00;101504.56;5238005;28;20563;-72
2023/12/19 21:51:23;;;;;;;12.97;9.87;;;;;;;7.70;100.00;101505.81;5238918;28;20164;-73
2023/12/19 21:53:56;;;;;;;13.80;9.77;;;;;;;7.71;100.00;101512.75;5253518;28;20033;-75
2023/12/19 21:56:28;;;;;;;12.77;9.53;;;;;;;7.85;100.00;101507.00;5247509;28;20036;-74
2023/12/19 21:58:59;;;;;;;15.60;9.57;;;;;;;7.83;100.00;101508.84;5242550;28;20096;-74
2023/12/19 22:01:31;;;;;;;11.93;8.70;;;;;;;7.83;100.00;101494.94;5248933;28;20017;-73
2023/12/19 22:04:03;;;;;;;12.67;8.60;;;;;;;7.69;100.00;101483.28;5251596;28;20029;-77
2023/12/19 22:06:34;;;;;;;14.30;8.50;;;;;;;7.75;100.00;101492.59;5254675;28;20060;-73
2023/12/19 22:09:08;;;;;;;12.13;8.37;;;;;;;7.67;100.00;101490.28;5256732;28;20068;-77
2023/12/19 22:11:39;;;;;;;10.77;8.70;;;;;;;7.67;100.00;101477.25;5254376;28;20489;-77
2023/12/19 22:14:11;;;;;;;10.17;8.23;;;;;;;7.59;100.00;101480.13;5245129;28;20112;-76
